sensor_id;sensor_type;location;lat;lon;timestamp;P1;durP1;ratioP1;P2;durP2;ratioP2
66567;SDS011;53422;49.296;6.900;2023-06-10T00:01:52;7.68;;;4.90;;
66567;SDS011;53422;49.296;6.900;2023-06-10T00:04:20;8.75;;;5.07;;
66567;SDS011;53422;49.296;6.900;2023-06-10T00:06:46;7.30;;;5.07;;
66567;SDS011;53422;49.296;6.900;2023-06-10T00:09:14;9.35;;;5.03;;
66567;SDS011;53422;49.296;6.900;2023-06-10T00:11:40;8.48;;;4.85;;
66567;SDS011;53422;49.296;6.900;2023-06-10T00:14:06;8.73;;;4.82;;
66567;SDS011;53422;49.296;6.900;2023-06-10T00:16:33;6.65;;;4.68;;
66567;SDS011;53422;49.296;6.900;2023-06-10T00:18:59;8.20;;;4.95;;
66567;SDS011;53422;49.296;6.900;2023-06-10T00:21:26;8.38;;;5.28;;
66567;SDS011;53422;49.296;6.900;2023-06-10T00:23:55;10.13;;;5.75;;
66567;SDS011;53422;49.296;6.900;2023-06-10T00:26:24;8.00;;;4.78;;
66567;SDS011;53422;49.296;6.900;2023-06-10T00:28:51;7.90;;;5.13;;
66567;SDS011;53422;49.296;6.900;2023-06-10T00:31:17;7.90;;;4.93;;
66567;SDS011;53422;49.296;6.900;2023-06-10T00:33:43;7.85;;;5.35;;
66567;SDS011;53422;49.296;6.900;2023-06-10T00:36:09;7.43;;;5.88;;
66567;SDS011;53422;49.296;6.900;2023-06-10T00:38:35;6.60;;;4.50;;
66567;SDS011;53422;49.296;6.900;2023-06-10T00:41:00;9.00;;;5.13;;
66567;SDS011;53422;49.296;6.900;2023-06-10T00:43:26;7.28;;;5.18;;
66567;SDS011;53422;49.296;6.900;2023-06-10T00:45:52;8.32;;;5.10;;
66567;SDS011;53422;49.296;6.900;2023-06-10T00:48:18;7.10;;;4.80;;
66567;SDS011;53422;49.296;6.900;2023-06-10T00:50:45;7.43;;;4.90;;
66567;SDS011;53422;49.296;6.900;2023-06-10T00:55:37;7.28;;;5.22;;
66567;SDS011;53422;49.296;6.900;2023-06-10T00:58:03;8.10;;;5.10;;
66567;SDS011;53422;49.296;6.900;2023-06-10T01:00:29;8.88;;;5.47;;
66567;SDS011;53422;49.296;6.900;2023-06-10T01:02:55;9.30;;;5.00;;
66567;SDS011;53422;49.296;6.900;2023-06-10T01:05:20;10.15;;;7.50;;
66567;SDS011;53422;49.296;6.900;2023-06-10T01:10:35;7.70;;;5.15;;
66567;SDS011;53422;49.296;6.900;2023-06-10T01:13:16;7.40;;;5.55;;
66567;SDS011;53422;49.296;6.900;2023-06-10T01:15:43;8.73;;;5.72;;
66567;SDS011;53422;49.296;6.900;2023-06-10T01:18:10;8.95;;;5.65;;
66567;SDS011;53422;49.296;6.900;2023-06-10T01:20:40;8.23;;;5.15;;
66567;SDS011;53422;49.296;6.900;2023-06-10T01:23:07;8.38;;;5.40;;
66567;SDS011;53422;49.296;6.900;2023-06-10T01:25:34;9.23;;;5.57;;
66567;SDS011;53422;49.296;6.900;2023-06-10T01:33:49;7.47;;;5.28;;
66567;SDS011;53422;49.296;6.900;2023-06-10T01:36:18;7.28;;;5.25;;
66567;SDS011;53422;49.296;6.900;2023-06-10T01:38:47;7.57;;;4.95;;
66567;SDS011;53422;49.296;6.900;2023-06-10T01:41:16;7.30;;;5.63;;
66567;SDS011;53422;49.296;6.900;2023-06-10T01:43:43;10.38;;;5.70;;
66567;SDS011;53422;49.296;6.900;2023-06-10T01:46:09;10.70;;;5.25;;
66567;SDS011;53422;49.296;6.900;2023-06-10T01:48:36;7.40;;;4.85;;
66567;SDS011;53422;49.296;6.900;2023-06-10T01:51:03;8.18;;;4.80;;
66567;SDS011;53422;49.296;6.900;2023-06-10T01:53:30;8.77;;;5.03;;
66567;SDS011;53422;49.296;6.900;2023-06-10T01:55:55;8.30;;;5.60;;
66567;SDS011;53422;49.296;6.900;2023-06-10T01:58:21;8.45;;;5.60;;
66567;SDS011;53422;49.296;6.900;2023-06-10T02:00:46;8.40;;;5.72;;
66567;SDS011;53422;49.296;6.900;2023-06-10T02:03:12;10.00;;;5.50;;
66567;SDS011;53422;49.296;6.900;2023-06-10T02:05:38;7.15;;;5.10;;
66567;SDS011;53422;49.296;6.900;2023-06-10T02:08:04;7.90;;;5.28;;
66567;SDS011;53422;49.296;6.900;2023-06-10T02:10:30;10.20;;;5.60;;
66567;SDS011;53422;49.296;6.900;2023-06-10T02:12:56;9.98;;;4.90;;
66567;SDS011;53422;49.296;6.900;2023-06-10T02:15:22;9.55;;;5.05;;
66567;SDS011;53422;49.296;6.900;2023-06-10T02:17:47;8.23;;;5.72;;
66567;SDS011;53422;49.296;6.900;2023-06-10T02:20:14;11.77;;;5.15;;
66567;SDS011;53422;49.296;6.900;2023-06-10T02:22:40;9.30;;;5.25;;
66567;SDS011;53422;49.296;6.900;2023-06-10T02:25:05;8.55;;;5.68;;
66567;SDS011;53422;49.296;6.900;2023-06-10T02:27:31;6.53;;;5.18;;
66567;SDS011;53422;49.296;6.900;2023-06-10T02:29:57;9.75;;;5.40;;
66567;SDS011;53422;49.296;6.900;2023-06-10T02:32:23;8.25;;;5.50;;
66567;SDS011;53422;49.296;6.900;2023-06-10T02:34:50;9.70;;;6.20;;
66567;SDS011;53422;49.296;6.900;2023-06-10T02:37:16;7.15;;;5.10;;
66567;SDS011;53422;49.296;6.900;2023-06-10T02:39:42;7.55;;;5.30;;
66567;SDS011;53422;49.296;6.900;2023-06-10T02:42:07;7.97;;;5.75;;
66567;SDS011;53422;49.296;6.900;2023-06-10T02:44:33;8.05;;;5.70;;
66567;SDS011;53422;49.296;6.900;2023-06-10T02:46:59;7.78;;;5.28;;
66567;SDS011;53422;49.296;6.900;2023-06-10T02:49:25;8.48;;;5.68;;
66567;SDS011;53422;49.296;6.900;2023-06-10T02:51:52;8.57;;;5.18;;
66567;SDS011;53422;49.296;6.900;2023-06-10T02:54:22;7.53;;;6.15;;
66567;SDS011;53422;49.296;6.900;2023-06-10T02:56:48;9.40;;;5.20;;
66567;SDS011;53422;49.296;6.900;2023-06-10T02:59:14;9.30;;;6.07;;
66567;SDS011;53422;49.296;6.900;2023-06-10T03:01:40;8.52;;;5.72;;
66567;SDS011;53422;49.296;6.900;2023-06-10T03:04:07;9.13;;;5.60;;
66567;SDS011;53422;49.296;6.900;2023-06-10T03:06:34;8.65;;;5.97;;
66567;SDS011;53422;49.296;6.900;2023-06-10T03:09:00;8.52;;;5.57;;
66567;SDS011;53422;49.296;6.900;2023-06-10T03:11:29;8.70;;;5.85;;
66567;SDS011;53422;49.296;6.900;2023-06-10T03:13:55;9.13;;;5.78;;
66567;SDS011;53422;49.296;6.900;2023-06-10T03:16:21;8.02;;;5.43;;
66567;SDS011;53422;49.296;6.900;2023-06-10T03:18:47;8.80;;;5.43;;
66567;SDS011;53422;49.296;6.900;2023-06-10T03:21:13;7.57;;;5.10;;
66567;SDS011;53422;49.296;6.900;2023-06-10T03:23:39;7.95;;;5.55;;
66567;SDS011;53422;49.296;6.900;2023-06-10T03:26:05;8.68;;;5.88;;
66567;SDS011;53422;49.296;6.900;2023-06-10T03:28:31;7.88;;;5.72;;
66567;SDS011;53422;49.296;6.900;2023-06-10T03:30:57;11.20;;;6.78;;
66567;SDS011;53422;49.296;6.900;2023-06-10T03:33:25;9.38;;;6.38;;
66567;SDS011;53422;49.296;6.900;2023-06-10T03:35:51;9.02;;;5.63;;
66567;SDS011;53422;49.296;6.900;2023-06-10T03:38:17;9.57;;;6.05;;
66567;SDS011;53422;49.296;6.900;2023-06-10T03:40:43;9.23;;;5.90;;
66567;SDS011;53422;49.296;6.900;2023-06-10T03:43:08;9.55;;;5.82;;
66567;SDS011;53422;49.296;6.900;2023-06-10T03:45:34;7.78;;;4.95;;
66567;SDS011;53422;49.296;6.900;2023-06-10T03:48:00;8.15;;;5.82;;
66567;SDS011;53422;49.296;6.900;2023-06-10T03:50:28;9.25;;;5.93;;
66567;SDS011;53422;49.296;6.900;2023-06-10T03:52:54;8.80;;;5.30;;
66567;SDS011;53422;49.296;6.900;2023-06-10T03:55:20;9.27;;;5.68;;
66567;SDS011;53422;49.296;6.900;2023-06-10T03:57:46;8.25;;;5.18;;
66567;SDS011;53422;49.296;6.900;2023-06-10T04:00:13;8.80;;;6.80;;
66567;SDS011;53422;49.296;6.900;2023-06-10T04:02:40;9.02;;;5.88;;
66567;SDS011;53422;49.296;6.900;2023-06-10T04:05:14;7.45;;;5.22;;
66567;SDS011;53422;49.296;6.900;2023-06-10T04:07:40;8.27;;;5.93;;
66567;SDS011;53422;49.296;6.900;2023-06-10T04:10:08;13.18;;;6.05;;
66567;SDS011;53422;49.296;6.900;2023-06-10T04:12:34;8.57;;;5.50;;
66567;SDS011;53422;49.296;6.900;2023-06-10T04:15:00;8.73;;;5.75;;
66567;SDS011;53422;49.296;6.900;2023-06-10T04:17:26;8.98;;;5.53;;
66567;SDS011;53422;49.296;6.900;2023-06-10T04:19:52;11.20;;;6.22;;
66567;SDS011;53422;49.296;6.900;2023-06-10T04:22:20;9.30;;;5.97;;
66567;SDS011;53422;49.296;6.900;2023-06-10T04:24:45;9.82;;;5.63;;
66567;SDS011;53422;49.296;6.900;2023-06-10T04:27:11;9.38;;;5.75;;
66567;SDS011;53422;49.296;6.900;2023-06-10T04:29:37;9.02;;;5.78;;
66567;SDS011;53422;49.296;6.900;2023-06-10T04:32:03;7.68;;;5.47;;
66567;SDS011;53422;49.296;6.900;2023-06-10T04:36:56;7.72;;;4.97;;
66567;SDS011;53422;49.296;6.900;2023-06-10T04:39:22;9.32;;;5.55;;
66567;SDS011;53422;49.296;6.900;2023-06-10T04:41:47;11.10;;;5.60;;
66567;SDS011;53422;49.296;6.900;2023-06-10T04:44:13;7.93;;;4.90;;
66567;SDS011;53422;49.296;6.900;2023-06-10T04:46:39;7.88;;;5.32;;
66567;SDS011;53422;49.296;6.900;2023-06-10T04:49:04;8.32;;;5.63;;
66567;SDS011;53422;49.296;6.900;2023-06-10T04:51:30;7.90;;;5.32;;
66567;SDS011;53422;49.296;6.900;2023-06-10T04:53:59;8.68;;;6.05;;
66567;SDS011;53422;49.296;6.900;2023-06-10T04:56:29;8.43;;;6.05;;
66567;SDS011;53422;49.296;6.900;2023-06-10T04:58:56;9.13;;;6.10;;
66567;SDS011;53422;49.296;6.900;2023-06-10T05:01:22;8.50;;;5.38;;
66567;SDS011;53422;49.296;6.900;2023-06-10T05:03:48;10.68;;;6.03;;
66567;SDS011;53422;49.296;6.900;2023-06-10T05:06:14;10.27;;;6.50;;
66567;SDS011;53422;49.296;6.900;2023-06-10T05:08:40;8.43;;;5.85;;
66567;SDS011;53422;49.296;6.900;2023-06-10T05:11:05;7.45;;;5.22;;
66567;SDS011;53422;49.296;6.900;2023-06-10T05:13:31;9.00;;;6.18;;
66567;SDS011;53422;49.296;6.900;2023-06-10T05:15:57;10.43;;;5.45;;
66567;SDS011;53422;49.296;6.900;2023-06-10T05:18:23;9.13;;;6.63;;
66567;SDS011;53422;49.296;6.900;2023-06-10T05:20:49;8.73;;;6.07;;
66567;SDS011;53422;49.296;6.900;2023-06-10T05:23:14;9.77;;;6.95;;
66567;SDS011;53422;49.296;6.900;2023-06-10T05:25:40;8.70;;;6.00;;
66567;SDS011;53422;49.296;6.900;2023-06-10T05:28:06;8.25;;;5.50;;
66567;SDS011;53422;49.296;6.900;2023-06-10T05:30:35;9.65;;;5.38;;
66567;SDS011;53422;49.296;6.900;2023-06-10T05:33:01;8.25;;;5.63;;
66567;SDS011;53422;49.296;6.900;2023-06-10T05:35:27;7.80;;;5.07;;
66567;SDS011;53422;49.296;6.900;2023-06-10T05:37:53;7.15;;;5.15;;
66567;SDS011;53422;49.296;6.900;2023-06-10T05:40:18;9.88;;;5.65;;
66567;SDS011;53422;49.296;6.900;2023-06-10T05:42:44;9.35;;;5.25;;
66567;SDS011;53422;49.296;6.900;2023-06-10T05:45:10;7.95;;;5.65;;
66567;SDS011;53422;49.296;6.900;2023-06-10T05:47:36;7.05;;;4.68;;
66567;SDS011;53422;49.296;6.900;2023-06-10T05:50:01;8.43;;;5.65;;
66567;SDS011;53422;49.296;6.900;2023-06-10T05:52:27;8.43;;;5.15;;
66567;SDS011;53422;49.296;6.900;2023-06-10T05:54:53;7.95;;;5.32;;
66567;SDS011;53422;49.296;6.900;2023-06-10T05:57:19;9.85;;;6.07;;
66567;SDS011;53422;49.296;6.900;2023-06-10T05:59:45;7.65;;;5.57;;
66567;SDS011;53422;49.296;6.900;2023-06-10T06:02:11;8.43;;;5.38;;
66567;SDS011;53422;49.296;6.900;2023-06-10T06:04:36;9.80;;;5.70;;
66567;SDS011;53422;49.296;6.900;2023-06-10T06:07:02;8.93;;;5.32;;
66567;SDS011;53422;49.296;6.900;2023-06-10T06:09:28;9.73;;;5.65;;
66567;SDS011;53422;49.296;6.900;2023-06-10T06:11:54;7.15;;;4.40;;
66567;SDS011;53422;49.296;6.900;2023-06-10T06:14:20;8.10;;;4.97;;
66567;SDS011;53422;49.296;6.900;2023-06-10T06:16:45;11.57;;;5.53;;
66567;SDS011;53422;49.296;6.900;2023-06-10T06:19:11;8.43;;;5.65;;
66567;SDS011;53422;49.296;6.900;2023-06-10T06:21:37;7.82;;;5.00;;
66567;SDS011;53422;49.296;6.900;2023-06-10T06:24:02;10.48;;;5.78;;
66567;SDS011;53422;49.296;6.900;2023-06-10T06:26:28;10.02;;;5.10;;
66567;SDS011;53422;49.296;6.900;2023-06-10T06:28:54;10.23;;;5.35;;
66567;SDS011;53422;49.296;6.900;2023-06-10T06:31:20;6.88;;;5.20;;
66567;SDS011;53422;49.296;6.900;2023-06-10T06:33:45;7.82;;;5.60;;
66567;SDS011;53422;49.296;6.900;2023-06-10T06:36:11;7.18;;;4.85;;
66567;SDS011;53422;49.296;6.900;2023-06-10T06:38:36;7.72;;;4.30;;
66567;SDS011;53422;49.296;6.900;2023-06-10T06:44:12;10.02;;;4.50;;
66567;SDS011;53422;49.296;6.900;2023-06-10T06:46:38;5.85;;;3.75;;
66567;SDS011;53422;49.296;6.900;2023-06-10T06:49:04;7.50;;;4.32;;
66567;SDS011;53422;49.296;6.900;2023-06-10T06:51:29;7.28;;;4.28;;
66567;SDS011;53422;49.296;6.900;2023-06-10T06:53:55;6.63;;;4.10;;
66567;SDS011;53422;49.296;6.900;2023-06-10T06:56:23;6.85;;;3.85;;
66567;SDS011;53422;49.296;6.900;2023-06-10T06:58:49;7.32;;;3.97;;
66567;SDS011;53422;49.296;6.900;2023-06-10T07:01:15;5.45;;;3.78;;
66567;SDS011;53422;49.296;6.900;2023-06-10T07:03:41;8.02;;;4.22;;
66567;SDS011;53422;49.296;6.900;2023-06-10T07:06:07;6.15;;;4.43;;
66567;SDS011;53422;49.296;6.900;2023-06-10T07:08:32;6.10;;;4.22;;
66567;SDS011;53422;49.296;6.900;2023-06-10T07:10:58;6.63;;;4.00;;
66567;SDS011;53422;49.296;6.900;2023-06-10T07:13:23;7.22;;;4.40;;
66567;SDS011;53422;49.296;6.900;2023-06-10T07:15:49;5.90;;;4.10;;
66567;SDS011;53422;49.296;6.900;2023-06-10T07:18:15;6.75;;;4.35;;
66567;SDS011;53422;49.296;6.900;2023-06-10T07:20:44;5.97;;;4.10;;
66567;SDS011;53422;49.296;6.900;2023-06-10T07:23:09;5.78;;;3.90;;
66567;SDS011;53422;49.296;6.900;2023-06-10T07:25:35;7.00;;;4.10;;
66567;SDS011;53422;49.296;6.900;2023-06-10T07:28:01;5.80;;;4.00;;
66567;SDS011;53422;49.296;6.900;2023-06-10T07:30:27;5.88;;;3.85;;
66567;SDS011;53422;49.296;6.900;2023-06-10T07:32:54;5.53;;;3.67;;
66567;SDS011;53422;49.296;6.900;2023-06-10T07:35:20;6.55;;;3.28;;
66567;SDS011;53422;49.296;6.900;2023-06-10T07:37:46;5.95;;;4.63;;
66567;SDS011;53422;49.296;6.900;2023-06-10T07:40:12;5.82;;;3.75;;
66567;SDS011;53422;49.296;6.900;2023-06-10T07:42:37;5.47;;;3.55;;
66567;SDS011;53422;49.296;6.900;2023-06-10T07:45:04;5.85;;;3.90;;
66567;SDS011;53422;49.296;6.900;2023-06-10T07:47:30;5.15;;;2.78;;
66567;SDS011;53422;49.296;6.900;2023-06-10T07:49:58;4.22;;;3.03;;
66567;SDS011;53422;49.296;6.900;2023-06-10T07:52:24;5.00;;;3.45;;
66567;SDS011;53422;49.296;6.900;2023-06-10T07:54:51;6.70;;;3.88;;
66567;SDS011;53422;49.296;6.900;2023-06-10T07:57:17;4.95;;;3.28;;
66567;SDS011;53422;49.296;6.900;2023-06-10T07:59:43;5.15;;;3.03;;
66567;SDS011;53422;49.296;6.900;2023-06-10T08:02:09;5.93;;;3.85;;
66567;SDS011;53422;49.296;6.900;2023-06-10T08:04:35;6.15;;;3.60;;
66567;SDS011;53422;49.296;6.900;2023-06-10T08:07:01;5.72;;;2.92;;
66567;SDS011;53422;49.296;6.900;2023-06-10T08:09:27;5.35;;;3.33;;
66567;SDS011;53422;49.296;6.900;2023-06-10T08:11:53;5.38;;;3.33;;
66567;SDS011;53422;49.296;6.900;2023-06-10T08:14:19;5.80;;;3.85;;
66567;SDS011;53422;49.296;6.900;2023-06-10T08:16:44;4.07;;;2.70;;
66567;SDS011;53422;49.296;6.900;2023-06-10T08:19:10;5.70;;;3.50;;
66567;SDS011;53422;49.296;6.900;2023-06-10T08:21:36;5.25;;;4.05;;
66567;SDS011;53422;49.296;6.900;2023-06-10T08:24:04;5.47;;;3.70;;
66567;SDS011;53422;49.296;6.900;2023-06-10T08:26:31;4.68;;;3.17;;
66567;SDS011;53422;49.296;6.900;2023-06-10T08:28:56;4.60;;;3.25;;
66567;SDS011;53422;49.296;6.900;2023-06-10T08:31:22;4.65;;;3.13;;
66567;SDS011;53422;49.296;6.900;2023-06-10T08:33:48;5.57;;;3.33;;
66567;SDS011;53422;49.296;6.900;2023-06-10T08:36:14;4.90;;;3.60;;
66567;SDS011;53422;49.296;6.900;2023-06-10T08:38:39;5.85;;;3.70;;
66567;SDS011;53422;49.296;6.900;2023-06-10T08:41:05;5.97;;;3.88;;
66567;SDS011;53422;49.296;6.900;2023-06-10T08:43:33;4.68;;;3.78;;
66567;SDS011;53422;49.296;6.900;2023-06-10T08:46:04;4.75;;;3.05;;
66567;SDS011;53422;49.296;6.900;2023-06-10T08:48:34;4.85;;;3.70;;
66567;SDS011;53422;49.296;6.900;2023-06-10T08:51:05;5.85;;;3.42;;
66567;SDS011;53422;49.296;6.900;2023-06-10T08:53:31;5.90;;;4.10;;
66567;SDS011;53422;49.296;6.900;2023-06-10T08:56:01;6.20;;;4.00;;
66567;SDS011;53422;49.296;6.900;2023-06-10T08:58:31;6.80;;;3.72;;
66567;SDS011;53422;49.296;6.900;2023-06-10T09:01:06;9.45;;;4.57;;
66567;SDS011;53422;49.296;6.900;2023-06-10T09:03:36;6.93;;;3.75;;
66567;SDS011;53422;49.296;6.900;2023-06-10T09:06:04;5.18;;;3.65;;
66567;SDS011;53422;49.296;6.900;2023-06-10T09:08:30;6.82;;;4.53;;
66567;SDS011;53422;49.296;6.900;2023-06-10T09:10:58;4.90;;;3.17;;
66567;SDS011;53422;49.296;6.900;2023-06-10T09:13:24;5.78;;;4.05;;
66567;SDS011;53422;49.296;6.900;2023-06-10T09:15:49;8.13;;;4.20;;
66567;SDS011;53422;49.296;6.900;2023-06-10T09:18:16;4.93;;;3.30;;
66567;SDS011;53422;49.296;6.900;2023-06-10T09:20:42;5.40;;;3.70;;
66567;SDS011;53422;49.296;6.900;2023-06-10T09:23:09;7.85;;;3.58;;
66567;SDS011;53422;49.296;6.900;2023-06-10T09:25:35;3.35;;;2.45;;
66567;SDS011;53422;49.296;6.900;2023-06-10T09:28:03;5.70;;;3.88;;
66567;SDS011;53422;49.296;6.900;2023-06-10T09:30:29;8.25;;;3.90;;
66567;SDS011;53422;49.296;6.900;2023-06-10T09:32:57;4.97;;;3.58;;
66567;SDS011;53422;49.296;6.900;2023-06-10T09:35:27;5.50;;;3.70;;
66567;SDS011;53422;49.296;6.900;2023-06-10T09:37:55;5.53;;;3.28;;
66567;SDS011;53422;49.296;6.900;2023-06-10T09:40:21;5.82;;;3.97;;
66567;SDS011;53422;49.296;6.900;2023-06-10T09:42:52;5.82;;;4.25;;
66567;SDS011;53422;49.296;6.900;2023-06-10T09:45:22;5.65;;;3.85;;
66567;SDS011;53422;49.296;6.900;2023-06-10T09:47:52;6.47;;;3.80;;
66567;SDS011;53422;49.296;6.900;2023-06-10T09:50:18;9.07;;;3.75;;
66567;SDS011;53422;49.296;6.900;2023-06-10T09:52:45;5.38;;;4.32;;
66567;SDS011;53422;49.296;6.900;2023-06-10T09:55:13;7.13;;;3.92;;
66567;SDS011;53422;49.296;6.900;2023-06-10T09:57:39;7.30;;;4.53;;
66567;SDS011;53422;49.296;6.900;2023-06-10T10:00:07;8.32;;;5.30;;
66567;SDS011;53422;49.296;6.900;2023-06-10T10:02:47;6.88;;;4.25;;
66567;SDS011;53422;49.296;6.900;2023-06-10T10:05:14;6.82;;;4.00;;
66567;SDS011;53422;49.296;6.900;2023-06-10T10:07:41;8.20;;;4.25;;
66567;SDS011;53422;49.296;6.900;2023-06-10T10:10:08;5.53;;;3.70;;
66567;SDS011;53422;49.296;6.900;2023-06-10T10:12:35;6.63;;;4.13;;
66567;SDS011;53422;49.296;6.900;2023-06-10T10:15:03;7.53;;;3.92;;
66567;SDS011;53422;49.296;6.900;2023-06-10T10:17:33;5.45;;;3.63;;
66567;SDS011;53422;49.296;6.900;2023-06-10T10:20:04;5.38;;;3.78;;
66567;SDS011;53422;49.296;6.900;2023-06-10T10:22:37;5.15;;;3.63;;
66567;SDS011;53422;49.296;6.900;2023-06-10T10:25:49;4.57;;;3.08;;
66567;SDS011;53422;49.296;6.900;2023-06-10T10:27:56;5.85;;;3.28;;
66567;SDS011;53422;49.296;6.900;2023-06-10T10:30:26;9.85;;;3.35;;
66567;SDS011;53422;49.296;6.900;2023-06-10T10:33:00;5.20;;;3.60;;
66567;SDS011;53422;49.296;6.900;2023-06-10T10:35:32;5.90;;;3.70;;
66567;SDS011;53422;49.296;6.900;2023-06-10T10:37:59;5.07;;;3.03;;
66567;SDS011;53422;49.296;6.900;2023-06-10T10:40:26;6.35;;;3.72;;
66567;SDS011;53422;49.296;6.900;2023-06-10T10:42:55;5.30;;;3.30;;
66567;SDS011;53422;49.296;6.900;2023-06-10T10:45:22;5.55;;;2.75;;
66567;SDS011;53422;49.296;6.900;2023-06-10T10:47:51;4.18;;;2.60;;
66567;SDS011;53422;49.296;6.900;2023-06-10T10:50:19;4.30;;;2.78;;
66567;SDS011;53422;49.296;6.900;2023-06-10T10:55:25;4.57;;;2.83;;
66567;SDS011;53422;49.296;6.900;2023-06-10T10:58:04;4.90;;;3.03;;
66567;SDS011;53422;49.296;6.900;2023-06-10T11:00:35;5.65;;;3.13;;
66567;SDS011;53422;49.296;6.900;2023-06-10T11:05:35;5.35;;;2.97;;
66567;SDS011;53422;49.296;6.900;2023-06-10T11:10:56;3.92;;;2.80;;
66567;SDS011;53422;49.296;6.900;2023-06-10T11:13:28;5.05;;;3.35;;
66567;SDS011;53422;49.296;6.900;2023-06-10T11:15:57;4.40;;;3.03;;
66567;SDS011;53422;49.296;6.900;2023-06-10T11:18:27;5.10;;;2.97;;
66567;SDS011;53422;49.296;6.900;2023-06-10T11:20:59;4.10;;;2.92;;
66567;SDS011;53422;49.296;6.900;2023-06-10T11:28:42;4.95;;;3.63;;
66567;SDS011;53422;49.296;6.900;2023-06-10T11:32:00;4.30;;;3.08;;
66567;SDS011;53422;49.296;6.900;2023-06-10T11:34:23;5.53;;;3.40;;
66567;SDS011;53422;49.296;6.900;2023-06-10T11:36:54;4.63;;;2.90;;
66567;SDS011;53422;49.296;6.900;2023-06-10T11:39:25;4.00;;;2.78;;
66567;SDS011;53422;49.296;6.900;2023-06-10T11:41:51;4.28;;;2.83;;
66567;SDS011;53422;49.296;6.900;2023-06-10T11:44:20;5.95;;;2.90;;
66567;SDS011;53422;49.296;6.900;2023-06-10T11:46:55;5.38;;;3.08;;
66567;SDS011;53422;49.296;6.900;2023-06-10T11:49:21;5.53;;;3.22;;
66567;SDS011;53422;49.296;6.900;2023-06-10T11:51:50;5.60;;;3.35;;
66567;SDS011;53422;49.296;6.900;2023-06-10T11:54:16;5.88;;;3.05;;
66567;SDS011;53422;49.296;6.900;2023-06-10T11:56:42;5.80;;;3.38;;
66567;SDS011;53422;49.296;6.900;2023-06-10T11:59:08;5.03;;;3.50;;
66567;SDS011;53422;49.296;6.900;2023-06-10T12:01:35;7.38;;;3.70;;
66567;SDS011;53422;49.296;6.900;2023-06-10T12:04:06;5.43;;;3.22;;
66567;SDS011;53422;49.296;6.900;2023-06-10T12:06:40;5.40;;;3.15;;
66567;SDS011;53422;49.296;6.900;2023-06-10T12:09:07;5.63;;;3.10;;
66567;SDS011;53422;49.296;6.900;2023-06-10T12:11:43;6.47;;;3.08;;
66567;SDS011;53422;49.296;6.900;2023-06-10T12:14:09;4.57;;;3.13;;
66567;SDS011;53422;49.296;6.900;2023-06-10T12:16:35;4.75;;;3.63;;
66567;SDS011;53422;49.296;6.900;2023-06-10T12:19:01;5.93;;;3.92;;
66567;SDS011;53422;49.296;6.900;2023-06-10T12:21:28;4.82;;;3.50;;
66567;SDS011;53422;49.296;6.900;2023-06-10T12:26:33;7.55;;;3.38;;
66567;SDS011;53422;49.296;6.900;2023-06-10T12:29:22;4.63;;;3.42;;
66567;SDS011;53422;49.296;6.900;2023-06-10T12:31:56;4.90;;;3.67;;
66567;SDS011;53422;49.296;6.900;2023-06-10T12:36:59;8.85;;;3.90;;
66567;SDS011;53422;49.296;6.900;2023-06-10T12:39:26;5.55;;;3.72;;
66567;SDS011;53422;49.296;6.900;2023-06-10T12:41:52;4.28;;;3.25;;
66567;SDS011;53422;49.296;6.900;2023-06-10T12:44:18;4.72;;;3.25;;
66567;SDS011;53422;49.296;6.900;2023-06-10T12:46:56;4.13;;;3.10;;
66567;SDS011;53422;49.296;6.900;2023-06-10T12:49:21;5.35;;;3.78;;
66567;SDS011;53422;49.296;6.900;2023-06-10T12:51:47;4.97;;;3.53;;
66567;SDS011;53422;49.296;6.900;2023-06-10T12:54:13;9.75;;;3.92;;
66567;SDS011;53422;49.296;6.900;2023-06-10T12:56:39;5.60;;;4.15;;
66567;SDS011;53422;49.296;6.900;2023-06-10T12:59:04;6.65;;;3.80;;
66567;SDS011;53422;49.296;6.900;2023-06-10T13:01:30;5.93;;;3.42;;
66567;SDS011;53422;49.296;6.900;2023-06-10T13:03:57;5.35;;;3.70;;
66567;SDS011;53422;49.296;6.900;2023-06-10T13:06:23;8.30;;;3.55;;
66567;SDS011;53422;49.296;6.900;2023-06-10T13:08:49;6.40;;;3.67;;
66567;SDS011;53422;49.296;6.900;2023-06-10T13:11:16;4.93;;;3.70;;
66567;SDS011;53422;49.296;6.900;2023-06-10T13:13:41;4.45;;;3.40;;
66567;SDS011;53422;49.296;6.900;2023-06-10T13:16:07;4.80;;;3.58;;
66567;SDS011;53422;49.296;6.900;2023-06-10T13:18:33;4.20;;;3.28;;
66567;SDS011;53422;49.296;6.900;2023-06-10T13:21:05;5.63;;;3.95;;
66567;SDS011;53422;49.296;6.900;2023-06-10T13:23:31;5.00;;;3.47;;
66567;SDS011;53422;49.296;6.900;2023-06-10T13:25:57;6.28;;;3.63;;
66567;SDS011;53422;49.296;6.900;2023-06-10T13:28:23;5.50;;;3.60;;
66567;SDS011;53422;49.296;6.900;2023-06-10T13:30:49;7.07;;;3.60;;
66567;SDS011;53422;49.296;6.900;2023-06-10T13:33:15;4.10;;;2.72;;
66567;SDS011;53422;49.296;6.900;2023-06-10T13:35:40;5.65;;;4.25;;
66567;SDS011;53422;49.296;6.900;2023-06-10T13:38:06;3.97;;;2.90;;
66567;SDS011;53422;49.296;6.900;2023-06-10T13:40:32;4.28;;;3.63;;
66567;SDS011;53422;49.296;6.900;2023-06-10T13:42:58;4.95;;;3.42;;
66567;SDS011;53422;49.296;6.900;2023-06-10T13:45:23;6.57;;;3.85;;
66567;SDS011;53422;49.296;6.900;2023-06-10T13:47:49;4.65;;;3.60;;
66567;SDS011;53422;49.296;6.900;2023-06-10T13:50:16;6.20;;;3.80;;
66567;SDS011;53422;49.296;6.900;2023-06-10T13:52:41;5.32;;;3.88;;
66567;SDS011;53422;49.296;6.900;2023-06-10T13:55:07;5.90;;;3.60;;
66567;SDS011;53422;49.296;6.900;2023-06-10T13:57:33;6.03;;;3.63;;
66567;SDS011;53422;49.296;6.900;2023-06-10T13:59:59;5.93;;;3.63;;
66567;SDS011;53422;49.296;6.900;2023-06-10T14:02:25;4.90;;;3.80;;
66567;SDS011;53422;49.296;6.900;2023-06-10T14:04:50;7.57;;;3.58;;
66567;SDS011;53422;49.296;6.900;2023-06-10T14:07:16;4.65;;;3.75;;
66567;SDS011;53422;49.296;6.900;2023-06-10T14:09:42;5.95;;;3.72;;
66567;SDS011;53422;49.296;6.900;2023-06-10T14:12:08;5.68;;;3.75;;
66567;SDS011;53422;49.296;6.900;2023-06-10T14:14:34;5.50;;;3.50;;
66567;SDS011;53422;49.296;6.900;2023-06-10T14:17:01;6.32;;;4.22;;
66567;SDS011;53422;49.296;6.900;2023-06-10T14:40:55;6.70;;;4.22;;
66567;SDS011;53422;49.296;6.900;2023-06-10T14:43:21;5.78;;;4.10;;
66567;SDS011;53422;49.296;6.900;2023-06-10T14:45:47;6.40;;;4.43;;
66567;SDS011;53422;49.296;6.900;2023-06-10T14:48:12;7.18;;;4.68;;
66567;SDS011;53422;49.296;6.900;2023-06-10T14:50:38;7.50;;;4.28;;
66567;SDS011;53422;49.296;6.900;2023-06-10T14:53:05;6.20;;;4.57;;
66567;SDS011;53422;49.296;6.900;2023-06-10T14:55:31;6.55;;;4.25;;
66567;SDS011;53422;49.296;6.900;2023-06-10T14:57:56;6.50;;;4.70;;
66567;SDS011;53422;49.296;6.900;2023-06-10T15:00:23;5.20;;;4.18;;
66567;SDS011;53422;49.296;6.900;2023-06-10T15:02:49;5.47;;;3.92;;
66567;SDS011;53422;49.296;6.900;2023-06-10T15:05:15;5.63;;;4.05;;
66567;SDS011;53422;49.296;6.900;2023-06-10T15:07:42;4.80;;;3.60;;
66567;SDS011;53422;49.296;6.900;2023-06-10T15:10:08;6.80;;;3.58;;
66567;SDS011;53422;49.296;6.900;2023-06-10T15:12:35;7.88;;;4.35;;
66567;SDS011;53422;49.296;6.900;2023-06-10T15:15:01;7.00;;;4.65;;
66567;SDS011;53422;49.296;6.900;2023-06-10T15:17:27;6.45;;;3.60;;
66567;SDS011;53422;49.296;6.900;2023-06-10T15:19:53;5.85;;;4.47;;
66567;SDS011;53422;49.296;6.900;2023-06-10T15:22:19;5.45;;;3.60;;
66567;SDS011;53422;49.296;6.900;2023-06-10T15:24:46;5.95;;;4.47;;
66567;SDS011;53422;49.296;6.900;2023-06-10T15:27:12;5.85;;;4.05;;
66567;SDS011;53422;49.296;6.900;2023-06-10T15:29:37;7.00;;;5.18;;
66567;SDS011;53422;49.296;6.900;2023-06-10T15:32:03;5.93;;;4.25;;
66567;SDS011;53422;49.296;6.900;2023-06-10T15:34:30;6.05;;;4.38;;
66567;SDS011;53422;49.296;6.900;2023-06-10T15:36:55;6.50;;;3.90;;
66567;SDS011;53422;49.296;6.900;2023-06-10T15:39:21;4.90;;;3.90;;
66567;SDS011;53422;49.296;6.900;2023-06-10T15:41:47;5.88;;;4.00;;
66567;SDS011;53422;49.296;6.900;2023-06-10T15:44:12;6.57;;;4.10;;